My Little Violet — ZCPE7 — position and weather

sailwx.info

Track history (hours):
 
Tides and Currents Weather Stations Pressure Air Temp Water Temp Dewpoint Dewpoint Depression Visibility Wind Speed Wind Dir Waves Ship Positions

My Little Violet

Last reported at 2016-Oct-28 00:32 UTC. Time now 2016-Dec-04 14:19 UTC.
Position N 32°10' E 034°48'.
Warning: this ship's position is 37 days out of date.

Length 45 m; draft 2.9 m.

Type: Pleasure craft. MMSI: 319496000.

Date/timePositionNaut miles runAvg speedWind from/ knotsBaromVisibWave heightAir tempDewpointWater temp
2016-Oct-28 00:32N 32°10' E 034°48'0 0.0
2016-Oct-27 23:32N 32°10' E 034°48'0 0.0
2016-Oct-27 21:32N 32°10' E 034°48'0 0.0
2016-Oct-27 17:32N 32°10' E 034°48'0 0.0
2016-Oct-27 15:32N 32°10' E 034°48'0 0.0
2016-Oct-27 11:32N 32°10' E 034°48'0 0.0
2016-Oct-27 09:32N 32°10' E 034°48'0 0.0
2016-Oct-27 05:32N 32°10' E 034°48'0 0.0
2016-Oct-27 04:31N 32°10' E 034°48'0 0.0
2016-Oct-27 03:28N 32°10' E 034°48'0 0.0
2016-Oct-27 00:31N 32°10' E 034°48'0 0.0
2016-Oct-26 21:31N 32°10' E 034°48'0 0.0
2016-Oct-26 16:31N 32°10' E 034°48'0 0.0
2016-Oct-26 15:31N 32°10' E 034°48'0 0.0
2016-Oct-26 14:31N 32°10' E 034°48'0 0.0
2016-Oct-26 12:31N 32°10' E 034°48'0 0.0
2016-Oct-26 11:31N 32°10' E 034°48'0 0.0
2016-Oct-26 10:31N 32°10' E 034°48'0 0.0
2016-Oct-26 09:31N 32°10' E 034°48'0 0.0
2016-Oct-26 08:28N 32°10' E 034°48'0 0.0
2016-Oct-26 07:28N 32°10' E 034°48'0 0.0
2016-Oct-26 04:31N 32°10' E 034°48'0 0.3
2016-Oct-26 03:33N 32°10' E 034°47'0 0.0
2016-Oct-25 23:33N 32°10' E 034°47'0 0.0
2016-Oct-25 21:33N 32°10' E 034°47'0 0.0
2016-Oct-25 20:33N 32°10' E 034°47'0 0.0
2016-Oct-25 17:33N 32°10' E 034°47'0 0.0
2016-Oct-25 16:33N 32°10' E 034°47'0 0.0
2016-Oct-25 15:33N 32°10' E 034°47'5 2.6
2016-Oct-25 13:32N 32°05' E 034°46'0 0.0
2016-Oct-25 12:32N 32°05' E 034°46'0 0.0
2016-Oct-25 10:32N 32°05' E 034°46'5 1.7
2016-Oct-25 07:33N 32°10' E 034°48'0 0.0
2016-Oct-25 05:33N 32°10' E 034°48'0 0.0
2016-Oct-25 04:33N 32°10' E 034°48'0 0.0
2016-Oct-25 03:33N 32°10' E 034°48'0 0.0
2016-Oct-25 02:33N 32°10' E 034°48'0 0.0
2016-Oct-24 21:33N 32°10' E 034°48'0 0.0
2016-Oct-24 20:33N 32°10' E 034°48'0 0.0
2016-Oct-24 18:33N 32°10' E 034°48'18 3.6
2016-Oct-24 13:34N 32°28' E 034°51'18 3.0
2016-Oct-24 07:31N 32°10' E 034°48'0 0.0
2016-Oct-24 06:31N 32°10' E 034°48'0 0.0
2016-Oct-24 05:28N 32°10' E 034°48'0 0.0
2016-Oct-24 04:31N 32°10' E 034°48'0 0.0
2016-Oct-24 01:34N 32°10' E 034°48'0 0.0
2016-Oct-23 22:33N 32°10' E 034°48'0 0.0
2016-Oct-23 16:33N 32°10' E 034°48'0 0.0
2016-Oct-23 14:33N 32°10' E 034°48'6 5.8
2016-Oct-23 13:33N 32°04' E 034°45'1 0.2
2016-Oct-23 10:33N 32°05' E 034°46'5 4.9
2016-Oct-23 09:33N 32°10' E 034°48'0 0.0
2016-Oct-23 07:33N 32°10' E 034°48'0 0.0
2016-Oct-23 05:33N 32°10' E 034°48'0 0.0
2016-Oct-23 03:33N 32°10' E 034°48'0 0.0
2016-Oct-23 02:33N 32°10' E 034°48'0 0.0
2016-Oct-22 23:32N 32°10' E 034°48'0 0.0
2016-Oct-22 17:32N 32°10' E 034°48'0 0.0
2016-Oct-22 16:32N 32°10' E 034°48'0 0.0
2016-Oct-22 15:32N 32°10' E 034°48'5 2.4
2016-Oct-22 13:31N 32°05' E 034°46'5 1.6
2016-Oct-22 10:31N 32°10' E 034°48'0 0.0
2016-Oct-22 08:31N 32°10' E 034°48'0 0.0
2016-Oct-22 07:28N 32°10' E 034°48'0 0.0
2016-Oct-22 04:31N 32°10' E 034°48'0 0.0
2016-Oct-22 00:31N 32°10' E 034°48'0 0.0
2016-Oct-21 23:31N 32°10' E 034°48'0 0.0
2016-Oct-21 21:31N 32°10' E 034°48'0 0.0
2016-Oct-21 16:31N 32°10' E 034°48'0 0.0
2016-Oct-21 15:31N 32°10' E 034°48'0 0.0
2016-Oct-21 14:28N 32°10' E 034°48'0 0.0
2016-Oct-21 13:31N 32°10' E 034°48'0 0.0
2016-Oct-21 09:31N 32°10' E 034°48'0 0.0
2016-Oct-21 08:31N 32°10' E 034°48'0 0.0
2016-Oct-21 06:33N 32°10' E 034°48'0 0.0
2016-Oct-21 00:33N 32°10' E 034°48'0 0.0
2016-Oct-20 22:33N 32°10' E 034°48'0 0.0
2016-Oct-20 20:33N 32°10' E 034°48'0 0.0
2016-Oct-20 15:33N 32°10' E 034°48'0 0.0
2016-Oct-20 13:33N 32°10' E 034°48'0 0.0
2016-Oct-20 12:33N 32°10' E 034°48'0 0.0
2016-Oct-20 11:33N 32°10' E 034°48'0 0.0
2016-Oct-20 10:33N 32°10' E 034°48'0 0.0
2016-Oct-20 09:33N 32°10' E 034°48'0 0.0
2016-Oct-20 08:33N 32°10' E 034°48'0 0.0
2016-Oct-20 06:33N 32°10' E 034°48'0 0.0
2016-Oct-20 04:33N 32°10' E 034°48'0 0.0
2016-Oct-20 00:33N 32°10' E 034°48'0 0.0
2016-Oct-19 22:33N 32°10' E 034°48'0 0.0
2016-Oct-19 20:32N 32°10' E 034°48'0 0.0
2016-Oct-19 19:32N 32°10' E 034°48'0 0.0
2016-Oct-19 16:32N 32°10' E 034°48'0 0.0
2016-Oct-19 15:32N 32°10' E 034°48'0 0.0
2016-Oct-19 14:32N 32°10' E 034°48'0 0.0
2016-Oct-19 12:32N 32°10' E 034°48'0 0.0
2016-Oct-19 01:34N 32°10' E 034°48'0 0.0
2016-Oct-18 21:34N 32°10' E 034°48'0 0.0
2016-Oct-18 18:34N 32°10' E 034°48'0 0.0
2016-Oct-18 14:34N 32°10' E 034°48'0 0.0
2016-Oct-18 13:34N 32°10' E 034°48'0 0.0
2016-Oct-18 10:34N 32°10' E 034°48'0 0.0
2016-Oct-18 09:34N 32°10' E 034°48'0 0.0
2016-Oct-18 07:34N 32°10' E 034°48'0 0.0
2016-Oct-18 06:33N 32°10' E 034°48'  
Track history (hours):
 
Tides and Currents Weather Stations Pressure Air Temp Water Temp Dewpoint Dewpoint Depression Visibility Wind Speed Wind Dir Waves Ship Positions

My Little Violet

Last reported at 2016-Oct-28 00:32 UTC. Time now 2016-Dec-04 14:19 UTC.
Position N 32°10' E 034°48'.
Warning: this ship's position is 37 days out of date.

Length 45 m; draft 2.9 m.

Type: Pleasure craft. MMSI: 319496000.

Date/timePositionNaut miles runAvg speedWind from/ knotsBaromVisibWave heightAir tempDewpointWater temp
2016-Oct-28 00:32N 32°10' E 034°48'0 0.0
2016-Oct-27 23:32N 32°10' E 034°48'0 0.0
2016-Oct-27 21:32N 32°10' E 034°48'0 0.0
2016-Oct-27 17:32N 32°10' E 034°48'0 0.0
2016-Oct-27 15:32N 32°10' E 034°48'0 0.0
2016-Oct-27 11:32N 32°10' E 034°48'0 0.0
2016-Oct-27 09:32N 32°10' E 034°48'0 0.0
2016-Oct-27 05:32N 32°10' E 034°48'0 0.0
2016-Oct-27 04:31N 32°10' E 034°48'0 0.0
2016-Oct-27 03:28N 32°10' E 034°48'0 0.0
2016-Oct-27 00:31N 32°10' E 034°48'0 0.0
2016-Oct-26 21:31N 32°10' E 034°48'0 0.0
2016-Oct-26 16:31N 32°10' E 034°48'0 0.0
2016-Oct-26 15:31N 32°10' E 034°48'0 0.0
2016-Oct-26 14:31N 32°10' E 034°48'0 0.0
2016-Oct-26 12:31N 32°10' E 034°48'0 0.0
2016-Oct-26 11:31N 32°10' E 034°48'0 0.0
2016-Oct-26 10:31N 32°10' E 034°48'0 0.0
2016-Oct-26 09:31N 32°10' E 034°48'0 0.0
2016-Oct-26 08:28N 32°10' E 034°48'0 0.0
2016-Oct-26 07:28N 32°10' E 034°48'0 0.0
2016-Oct-26 04:31N 32°10' E 034°48'0 0.3
2016-Oct-26 03:33N 32°10' E 034°47'0 0.0
2016-Oct-25 23:33N 32°10' E 034°47'0 0.0
2016-Oct-25 21:33N 32°10' E 034°47'0 0.0
2016-Oct-25 20:33N 32°10' E 034°47'0 0.0
2016-Oct-25 17:33N 32°10' E 034°47'0 0.0
2016-Oct-25 16:33N 32°10' E 034°47'0 0.0
2016-Oct-25 15:33N 32°10' E 034°47'5 2.6
2016-Oct-25 13:32N 32°05' E 034°46'0 0.0
2016-Oct-25 12:32N 32°05' E 034°46'0 0.0
2016-Oct-25 10:32N 32°05' E 034°46'5 1.7
2016-Oct-25 07:33N 32°10' E 034°48'0 0.0
2016-Oct-25 05:33N 32°10' E 034°48'0 0.0
2016-Oct-25 04:33N 32°10' E 034°48'0 0.0
2016-Oct-25 03:33N 32°10' E 034°48'0 0.0
2016-Oct-25 02:33N 32°10' E 034°48'0 0.0
2016-Oct-24 21:33N 32°10' E 034°48'0 0.0
2016-Oct-24 20:33N 32°10' E 034°48'0 0.0
2016-Oct-24 18:33N 32°10' E 034°48'18 3.6
2016-Oct-24 13:34N 32°28' E 034°51'18 3.0
2016-Oct-24 07:31N 32°10' E 034°48'0 0.0
2016-Oct-24 06:31N 32°10' E 034°48'0 0.0
2016-Oct-24 05:28N 32°10' E 034°48'0 0.0
2016-Oct-24 04:31N 32°10' E 034°48'0 0.0
2016-Oct-24 01:34N 32°10' E 034°48'0 0.0
2016-Oct-23 22:33N 32°10' E 034°48'0 0.0
2016-Oct-23 16:33N 32°10' E 034°48'0 0.0
2016-Oct-23 14:33N 32°10' E 034°48'6 5.8
2016-Oct-23 13:33N 32°04' E 034°45'1 0.2
2016-Oct-23 10:33N 32°05' E 034°46'5 4.9
2016-Oct-23 09:33N 32°10' E 034°48'0 0.0
2016-Oct-23 07:33N 32°10' E 034°48'0 0.0
2016-Oct-23 05:33N 32°10' E 034°48'0 0.0
2016-Oct-23 03:33N 32°10' E 034°48'0 0.0
2016-Oct-23 02:33N 32°10' E 034°48'0 0.0
2016-Oct-22 23:32N 32°10' E 034°48'0 0.0
2016-Oct-22 17:32N 32°10' E 034°48'0 0.0
2016-Oct-22 16:32N 32°10' E 034°48'0 0.0
2016-Oct-22 15:32N 32°10' E 034°48'5 2.4
2016-Oct-22 13:31N 32°05' E 034°46'5 1.6
2016-Oct-22 10:31N 32°10' E 034°48'0 0.0
2016-Oct-22 08:31N 32°10' E 034°48'0 0.0
2016-Oct-22 07:28N 32°10' E 034°48'0 0.0
2016-Oct-22 04:31N 32°10' E 034°48'0 0.0
2016-Oct-22 00:31N 32°10' E 034°48'0 0.0
2016-Oct-21 23:31N 32°10' E 034°48'0 0.0
2016-Oct-21 21:31N 32°10' E 034°48'0 0.0
2016-Oct-21 16:31N 32°10' E 034°48'0 0.0
2016-Oct-21 15:31N 32°10' E 034°48'0 0.0
2016-Oct-21 14:28N 32°10' E 034°48'0 0.0
2016-Oct-21 13:31N 32°10' E 034°48'0 0.0
2016-Oct-21 09:31N 32°10' E 034°48'0 0.0
2016-Oct-21 08:31N 32°10' E 034°48'0 0.0
2016-Oct-21 06:33N 32°10' E 034°48'0 0.0
2016-Oct-21 00:33N 32°10' E 034°48'0 0.0
2016-Oct-20 22:33N 32°10' E 034°48'0 0.0
2016-Oct-20 20:33N 32°10' E 034°48'0 0.0
2016-Oct-20 15:33N 32°10' E 034°48'0 0.0
2016-Oct-20 13:33N 32°10' E 034°48'0 0.0
2016-Oct-20 12:33N 32°10' E 034°48'0 0.0
2016-Oct-20 11:33N 32°10' E 034°48'0 0.0
2016-Oct-20 10:33N 32°10' E 034°48'0 0.0
2016-Oct-20 09:33N 32°10' E 034°48'0 0.0
2016-Oct-20 08:33N 32°10' E 034°48'0 0.0
2016-Oct-20 06:33N 32°10' E 034°48'0 0.0
2016-Oct-20 04:33N 32°10' E 034°48'0 0.0
2016-Oct-20 00:33N 32°10' E 034°48'0 0.0
2016-Oct-19 22:33N 32°10' E 034°48'0 0.0
2016-Oct-19 20:32N 32°10' E 034°48'0 0.0
2016-Oct-19 19:32N 32°10' E 034°48'0 0.0
2016-Oct-19 16:32N 32°10' E 034°48'0 0.0
2016-Oct-19 15:32N 32°10' E 034°48'0 0.0
2016-Oct-19 14:32N 32°10' E 034°48'0 0.0
2016-Oct-19 12:32N 32°10' E 034°48'0 0.0
2016-Oct-19 01:34N 32°10' E 034°48'0 0.0
2016-Oct-18 21:34N 32°10' E 034°48'0 0.0
2016-Oct-18 18:34N 32°10' E 034°48'0 0.0
2016-Oct-18 14:34N 32°10' E 034°48'0 0.0
2016-Oct-18 13:34N 32°10' E 034°48'0 0.0
2016-Oct-18 10:34N 32°10' E 034°48'0 0.0
2016-Oct-18 09:34N 32°10' E 034°48'0 0.0
2016-Oct-18 07:34N 32°10' E 034°48'0 0.0
2016-Oct-18 06:33N 32°10' E 034°48'  

Dump ship's entire track history